EHGR/GLZ METAR and TAF weather

Enter ICAO airport designator
Station Type Date Time Source
EHGR METAR 2018/07/21 22:55 UTC NOAA

EHGR 212255Z AUTO 30006KT 270V330 9999 OVC320 15/11 Q1014 BLU


Station Type Date Time Source
EHGR Decoded METAR 2018/07/21 22:55 UTC NOAA

Gilze-Rijen, Netherlands (EHGR) 51-34N 004-56E 24M
Jul 21, 2018 - 06:55 PM EDT / 2018.07.21 2255 UTC
Wind: from the WNW (300 degrees) at 7 MPH (6 KT) (direction variable):0
Visibility: greater than 7 mile(s):0
Sky conditions: overcast
Temperature: 59 F (15 C)
Dew Point: 51 F (11 C)
Relative Humidity: 76%
Pressure (altimeter): 29.94 in. Hg (1014 hPa)
ob: EHGR 212255Z AUTO 30006KT 270V330 9999 OVC320 15/11 Q1014 BLU
cycle: 23

Station Type Date Time Source
EHGR TAF 2018/07/20 09:24 UTC NOAA

TAF TAF EHGR 201510Z 2009/2021 01006KT CNL


Example: see airport list